Map

Track Data

SID SEASON NUMBER BASIN SUBBASIN NAME ISO_TIME NATURE LAT LON WMO_WIND WMO_PRES WMO_AGENCY TRACK_TYPE DIST2LAND LANDFALL IFLAG USA_AGENCY USA_ATCF_ID USA_LAT USA_LON USA_RECORD USA_STATUS USA_WIND USA_PRES USA_SSHS USA_R34_NE USA_R34_SE USA_R34_SW USA_R34_NW USA_R50_NE USA_R50_SE USA_R50_SW USA_R50_NW USA_R64_NE USA_R64_SE USA_R64_SW USA_R64_NW USA_POCI USA_ROCI USA_RMW USA_EYE TOKYO_LAT TOKYO_LON TOKYO_GRADE TOKYO_WIND TOKYO_PRES TOKYO_R50_DIR TOKYO_R50_LONG TOKYO_R50_SHORT TOKYO_R30_DIR TOKYO_R30_LONG TOKYO_R30_SHORT TOKYO_LAND CMA_LAT CMA_LON CMA_CAT CMA_WIND CMA_PRES HKO_LAT HKO_LON HKO_CAT HKO_WIND HKO_PRES NEWDELHI_LAT NEWDELHI_LON NEWDELHI_GRADE NEWDELHI_WIND NEWDELHI_PRES NEWDELHI_CI NEWDELHI_DP NEWDELHI_POCI REUNION_LAT REUNION_LON REUNION_TYPE REUNION_WIND REUNION_PRES REUNION_TNUM REUNION_CI REUNION_RMW REUNION_R34_NE REUNION_R34_SE REUNION_R34_SW REUNION_R34_NW REUNION_R50_NE REUNION_R50_SE REUNION_R50_SW REUNION_R50_NW REUNION_R64_NE REUNION_R64_SE REUNION_R64_SW REUNION_R64_NW BOM_LAT BOM_LON BOM_TYPE BOM_WIND BOM_PRES BOM_TNUM BOM_CI BOM_RMW BOM_R34_NE BOM_R34_SE BOM_R34_SW BOM_R34_NW BOM_R50_NE BOM_R50_SE BOM_R50_SW BOM_R50_NW BOM_R64_NE BOM_R64_SE BOM_R64_SW BOM_R64_NW BOM_ROCI BOM_POCI BOM_EYE BOM_POS_METHOD BOM_PRES_METHOD NADI_LAT NADI_LON NADI_CAT NADI_WIND NADI_PRES WELLINGTON_LAT WELLINGTON_LON WELLINGTON_WIND WELLINGTON_PRES DS824_LAT DS824_LON DS824_STAGE DS824_WIND DS824_PRES TD9636_LAT TD9636_LON TD9636_STAGE TD9636_WIND TD9636_PRES TD9635_LAT TD9635_LON TD9635_WIND TD9635_PRES TD9635_ROCI NEUMANN_LAT NEUMANN_LON NEUMANN_CLASS NEUMANN_WIND NEUMANN_PRES MLC_LAT MLC_LON MLC_CLASS MLC_WIND MLC_PRES USA_GUST BOM_GUST BOM_GUST_PER REUNION_GUST REUNION_GUST_PER USA_SEAHGT USA_SEARAD_NE USA_SEARAD_SE USA_SEARAD_SW USA_SEARAD_NW STORM_SPEED STORM_DIR
1897360N13085 1897 55 NI BB NOT_NAMED 1897-12-26 00:00:00 TS 13.0000 85.0000 main 496 487 _________O____ -1 13.0000 85.0000 TC 64 3 356
1897360N13085 1897 55 NI BB NOT_NAMED 1897-12-26 03:00:00 TS 13.1367 84.9933 main 487 469 _________PO___ -1 13.2050 84.9900 TC 64 13.0000 85.0000 4 3 0
1897360N13085 1897 55 NI BB NOT_NAMED 1897-12-26 06:00:00 TS 13.3119 85.0063 main 469 452 _________OP___ -1 13.4000 85.0000 TC 64 13.1797 85.0157 4 4 8
1897360N13085 1897 55 NI BB NOT_NAMED 1897-12-26 09:00:00 TS 13.4918 85.0393 main 452 442 _________PP___ -1 13.5850 85.0425 TC 64 13.3675 85.0351 4 4 10
1897360N13085 1897 55 NI BB NOT_NAMED 1897-12-26 12:00:00 TS 13.6858 85.0810 main 442 426 _________OP___ -1 13.8000 85.1000 TC 64 13.5716 85.0619 4 5 9
1897360N13085 1897 55 NI BB NOT_NAMED 1897-12-26 15:00:00 TS 13.9538 85.1250 main 418 410 _________PO___ -1 14.1075 85.1500 TC 64 13.8000 85.1000 4 6 9
1897360N13085 1897 55 NI BB NOT_NAMED 1897-12-26 18:00:00 TS 14.2272 85.1754 main 410 396 _________OP___ -1 14.4000 85.2000 TC 64 14.0544 85.1508 4 5 12
1897360N13085 1897 55 NI BB NOT_NAMED 1897-12-26 21:00:00 TS 14.4525 85.2324 main 389 389 _________PP___ -1 14.5950 85.2575 TC 64 14.3100 85.2074 4 4 15
1897360N13085 1897 55 NI BB NOT_NAMED 1897-12-27 00:00:00 TS 14.6178 85.2801 main 391 385 _________OP___ -1 14.7000 85.3000 TC 64 14.5356 85.2602 4 3 15
1897360N13085 1897 55 NI BB NOT_NAMED 1897-12-27 03:00:00 TS 14.7112 85.3038 main 385 385 _________PO___ -1 14.7225 85.3075 TC 64 14.7000 85.3000 4 1 0
1897360N13085 1897 55 NI BB NOT_NAMED 1897-12-27 06:00:00 TS 14.7323 85.3072 main 385 385 _________OP___ -1 14.7000 85.3000 TC 64 14.7647 85.3144 4 0 0
1897360N13085 1897 55 NI BB NOT_NAMED 1897-12-27 09:00:00 TS 14.7337 85.3075 main 385 385 _________PP___ -1 14.7000 85.3000 TC 64 14.7675 85.3151 4 0 0
1897360N13085 1897 55 NI BB NOT_NAMED 1897-12-27 12:00:00 TS 14.7183 85.3041 main 385 385 _________OP___ -1 14.7000 85.3000 TC 64 14.7366 85.3082 4 0 211
1897360N13085 1897 55 NI BB NOT_NAMED 1897-12-27 15:00:00 TS 14.7000 85.3000 main 385 385 _________PO___ -1 14.7000 85.3000 TC 64 14.7000 85.3000 4 0 209
1897360N13085 1897 55 NI BB NOT_NAMED 1897-12-27 18:00:00 TS 14.6837 85.2939 main 385 385 _________OP___ -1 14.7000 85.3000 TC 64 14.6675 85.2879 4 0 0
1897360N13085 1897 55 NI BB NOT_NAMED 1897-12-27 21:00:00 TS 14.6587 85.2850 main 385 385 _________PP___ -1 14.6775 85.2925 TC 64 14.6400 85.2776 4 0 0
1897360N13085 1897 55 NI BB NOT_NAMED 1897-12-28 00:00:00 TS 14.6712 85.2893 main 385 385 _________OP___ -1 14.7000 85.3000 TC 64 14.6425 85.2785 4 1 21
1897360N13085 1897 55 NI BB NOT_NAMED 1897-12-28 03:00:00 TS 14.7562 85.3175 main 379 373 _________PO___ -1 14.8125 85.3350 TC 64 14.7000 85.3000 4 3 17
1897360N13085 1897 55 NI BB NOT_NAMED 1897-12-28 06:00:00 TS 14.9273 85.3706 main 382 365 _________OP___ -1 15.0000 85.4000 TC 64 14.8547 85.3412 4 4 17
1897360N13085 1897 55 NI BB NOT_NAMED 1897-12-28 09:00:00 TS 15.1562 85.4487 main 356 347 _________PP___ -1 15.2500 85.4925 TC 64 15.0625 85.4050 4 5 20
1897360N13085 1897 55 NI BB NOT_NAMED 1897-12-28 12:00:00 TS 15.3945 85.5456 main 347 339 _________OP___ -1 15.5000 85.6000 TC 64 15.2890 85.4912 4 5 23
1897360N13085 1897 55 NI BB NOT_NAMED 1897-12-28 15:00:00 TS 15.5862 85.6425 main 339 337 _________PO___ -1 15.6725 85.6851 TC 56 15.5000 85.6000 4 4 32
1897360N13085 1897 55 NI BB NOT_NAMED 1897-12-28 18:00:00 TS 15.7250 85.7602 main 342 333 _________OP___ -1 15.8000 85.8000 TC 49 15.6688 85.7303 4 4 46
1897360N13085 1897 55 NI BB NOT_NAMED 1897-12-28 21:00:00 TS 15.8421 85.9184 main 338 329 _________PP___ -1 15.9051 85.9799 TC 41 15.8001 85.8774 4 4 56
1897360N13085 1897 55 NI BB NOT_NAMED 1897-12-29 00:00:00 TS 15.9376 86.0906 main 342 333 _________OP___ -1 16.0000 86.2000 TC 34 15.9064 86.0359 4 3 60
1897360N13085 1897 55 NI BB NOT_NAMED 1897-12-29 03:00:00 NR 16.0000 86.2000 main 340 __________O___ -1 TC 16.0000 86.2000 2 2 58

About IBTrACS Database

This database is a web-friendly format of International Best Track Archive for Climate Stewardship (IBTrACS), a global best track data archive curated by NOAA dating back to 1842.

Updated: 2021-12-01